sensor_id;sensor_type;location;lat;lon;timestamp;pressure;altitude;pressure_sealevel;temperature;humidity
44920;BME280;30655;53.094;6.072;2022-11-15T00:17:12;100954.97;;;8.14;90.20
44920;BME280;30655;53.094;6.072;2022-11-15T01:20:17;100892.56;;;8.17;91.03
44920;BME280;30655;53.094;6.072;2022-11-15T01:24:40;100898.44;;;8.14;91.33
44920;BME280;30655;53.094;6.072;2022-11-15T01:33:41;100876.00;;;7.87;91.42
44920;BME280;30655;53.094;6.072;2022-11-15T02:12:13;100819.72;;;7.42;91.80
44920;BME280;30655;53.094;6.072;2022-11-15T02:18:39;100672.94;;;6.47;91.99
44920;BME280;30655;53.094;6.072;2022-11-15T02:21:58;100754.03;;;7.16;91.45
44920;BME280;30655;53.094;6.072;2022-11-15T02:28:07;100849.47;;;7.74;92.86
44920;BME280;30655;53.094;6.072;2022-11-15T02:32:14;100837.41;;;7.76;92.40
44920;BME280;30655;53.094;6.072;2022-11-15T02:38:16;100861.44;;;7.83;91.65
44920;BME280;30655;53.094;6.072;2022-11-15T02:42:06;100661.63;;;6.62;92.33
44920;BME280;30655;53.094;6.072;2022-11-15T02:45:30;100794.59;;;7.53;91.98
44920;BME280;30655;53.094;6.072;2022-11-15T02:51:01;100845.63;;;7.87;92.45
44920;BME280;30655;53.094;6.072;2022-11-15T02:54:00;100644.44;;;6.63;92.17
44920;BME280;30655;53.094;6.072;2022-11-15T03:00:17;100825.75;;;7.93;92.51
44920;BME280;30655;53.094;6.072;2022-11-15T03:37:25;100576.06;;;6.71;93.84
44920;BME280;30655;53.094;6.072;2022-11-15T03:40:25;100741.72;;;7.86;94.44
44920;BME280;30655;53.094;6.072;2022-11-15T03:43:13;100749.09;;;7.95;93.97
44920;BME280;30655;53.094;6.072;2022-11-15T03:49:10;100590.44;;;7.03;94.21
44920;BME280;30655;53.094;6.072;2022-11-15T03:52:21;100766.63;;;8.25;95.02
44920;BME280;30655;53.094;6.072;2022-11-15T03:55:21;100770.97;;;8.26;95.20
44920;BME280;30655;53.094;6.072;2022-11-15T03:58:00;100721.19;;;8.01;95.26
44920;BME280;30655;53.094;6.072;2022-11-15T04:00:44;100663.31;;;7.72;95.49
44920;BME280;30655;53.094;6.072;2022-11-15T04:03:31;100682.25;;;7.87;95.65
44920;BME280;30655;53.094;6.072;2022-11-15T04:06:40;100762.50;;;8.39;95.38
44920;BME280;30655;53.094;6.072;2022-11-15T04:16:50;100773.88;;;8.46;96.79
44920;BME280;30655;53.094;6.072;2022-11-15T04:19:57;100771.75;;;8.48;96.93
44920;BME280;30655;53.094;6.072;2022-11-15T04:22:45;100665.22;;;7.76;97.12
44920;BME280;30655;53.094;6.072;2022-11-15T04:25:57;100632.03;;;7.66;97.30
44920;BME280;30655;53.094;6.072;2022-11-15T04:29:11;100776.16;;;8.59;96.96
44920;BME280;30655;53.094;6.072;2022-11-15T04:32:09;100771.63;;;8.64;96.58
44920;BME280;30655;53.094;6.072;2022-11-15T04:38:41;100589.38;;;7.53;97.01
44920;BME280;30655;53.094;6.072;2022-11-15T04:42:04;100708.47;;;8.23;97.93
44920;BME280;30655;53.094;6.072;2022-11-15T04:45:05;100727.56;;;8.49;97.51
44920;BME280;30655;53.094;6.072;2022-11-15T04:51:01;100609.78;;;7.75;97.51
44920;BME280;30655;53.094;6.072;2022-11-15T05:06:56;100570.19;;;7.71;100.00
44920;BME280;30655;53.094;6.072;2022-11-15T05:10:31;100559.97;;;7.73;99.98
44920;BME280;30655;53.094;6.072;2022-11-15T05:13:36;100748.72;;;8.99;100.00
44920;BME280;30655;53.094;6.072;2022-11-15T05:16:53;100575.72;;;7.86;100.00
44920;BME280;30655;53.094;6.072;2022-11-15T05:21:12;100672.44;;;8.56;100.00
44920;BME280;30655;53.094;6.072;2022-11-15T05:33:58;100758.59;;;9.25;100.00
44920;BME280;30655;53.094;6.072;2022-11-15T05:36:56;100673.63;;;8.76;100.00
44920;BME280;30655;53.094;6.072;2022-11-15T05:40:31;100699.16;;;9.05;100.00
44920;BME280;30655;53.094;6.072;2022-11-15T05:43:55;100747.06;;;9.40;100.00
44920;BME280;30655;53.094;6.072;2022-11-15T05:46:36;100758.44;;;9.47;100.00
44920;BME280;30655;53.094;6.072;2022-11-15T06:24:16;100762.97;;;9.99;100.00
44920;BME280;30655;53.094;6.072;2022-11-15T06:27:10;100576.09;;;8.79;100.00
44920;BME280;30655;53.094;6.072;2022-11-15T06:33:16;100786.22;;;10.10;100.00
44920;BME280;30655;53.094;6.072;2022-11-15T06:36:26;100778.69;;;10.17;100.00
44920;BME280;30655;53.094;6.072;2022-11-15T06:39:23;100740.78;;;9.91;100.00
44920;BME280;30655;53.094;6.072;2022-11-15T06:42:15;100790.31;;;10.22;100.00
44920;BME280;30655;53.094;6.072;2022-11-15T06:45:44;100608.53;;;8.99;100.00
44920;BME280;30655;53.094;6.072;2022-11-15T06:51:55;100818.97;;;10.28;100.00
44920;BME280;30655;53.094;6.072;2022-11-15T07:01:31;100599.16;;;9.17;100.00
44920;BME280;30655;53.094;6.072;2022-11-15T07:13:31;100621.34;;;9.34;100.00
44920;BME280;30655;53.094;6.072;2022-11-15T07:16:59;100797.97;;;10.56;100.00
44920;BME280;30655;53.094;6.072;2022-11-15T07:20:41;100614.09;;;9.39;100.00
44920;BME280;30655;53.094;6.072;2022-11-15T07:27:33;100751.19;;;10.35;100.00
44920;BME280;30655;53.094;6.072;2022-11-15T07:40:29;100690.06;;;9.93;100.00
44920;BME280;30655;53.094;6.072;2022-11-15T07:47:53;100718.75;;;10.25;100.00
44920;BME280;30655;53.094;6.072;2022-11-15T07:50:00;100772.28;;;10.53;100.00
44920;BME280;30655;53.094;6.072;2022-11-15T07:52:45;100771.47;;;10.63;100.00
44920;BME280;30655;53.094;6.072;2022-11-15T07:55:23;100760.41;;;10.54;100.00
44920;BME280;30655;53.094;6.072;2022-11-15T07:58:40;100630.09;;;9.81;100.00
44920;BME280;30655;53.094;6.072;2022-11-15T08:01:58;100796.06;;;10.92;100.00
44920;BME280;30655;53.094;6.072;2022-11-15T08:08:29;100725.78;;;10.51;100.00
44920;BME280;30655;53.094;6.072;2022-11-15T08:11:26;100664.69;;;10.05;100.00
44920;BME280;30655;53.094;6.072;2022-11-15T08:17:57;100758.53;;;10.75;100.00
44920;BME280;30655;53.094;6.072;2022-11-15T08:22:06;100725.28;;;10.64;100.00
44920;BME280;30655;53.094;6.072;2022-11-15T08:24:15;100802.56;;;11.16;100.00
44920;BME280;30655;53.094;6.072;2022-11-15T08:33:25;100637.69;;;10.10;100.00
44920;BME280;30655;53.094;6.072;2022-11-15T08:36:13;100661.75;;;10.42;100.00
44920;BME280;30655;53.094;6.072;2022-11-15T08:39:02;100670.16;;;10.45;100.00
44920;BME280;30655;53.094;6.072;2022-11-15T08:44:46;100750.38;;;11.15;100.00
44920;BME280;30655;53.094;6.072;2022-11-15T08:47:56;100628.56;;;10.36;100.00
44920;BME280;30655;53.094;6.072;2022-11-15T08:51:02;100593.69;;;10.24;100.00
44920;BME280;30655;53.094;6.072;2022-11-15T08:53:33;100780.31;;;11.54;100.00
44920;BME280;30655;53.094;6.072;2022-11-15T08:56:26;100614.47;;;10.49;100.00
44920;BME280;30655;53.094;6.072;2022-11-15T08:58:57;100792.19;;;11.58;100.00
44920;BME280;30655;53.094;6.072;2022-11-15T09:01:42;100753.25;;;11.44;100.00
44920;BME280;30655;53.094;6.072;2022-11-15T09:04:43;100718.69;;;11.16;100.00
44920;BME280;30655;53.094;6.072;2022-11-15T09:07:41;100792.16;;;11.69;100.00
44920;BME280;30655;53.094;6.072;2022-11-15T09:13:38;100752.16;;;11.55;100.00
44920;BME280;30655;53.094;6.072;2022-11-15T09:16:34;100779.94;;;11.71;100.00
44920;BME280;30655;53.094;6.072;2022-11-15T09:25:58;100686.78;;;11.13;100.00
44920;BME280;30655;53.094;6.072;2022-11-15T09:28:50;100765.06;;;11.79;100.00
44920;BME280;30655;53.094;6.072;2022-11-15T09:31:38;100638.13;;;11.03;100.00
44920;BME280;30655;53.094;6.072;2022-11-15T09:34:37;100671.03;;;11.35;100.00
44920;BME280;30655;53.094;6.072;2022-11-15T09:37:47;100645.94;;;11.14;100.00
44920;BME280;30655;53.094;6.072;2022-11-15T09:47:38;100701.44;;;11.76;100.00
44920;BME280;30655;53.094;6.072;2022-11-15T09:50:39;100770.28;;;12.19;100.00
44920;BME280;30655;53.094;6.072;2022-11-15T09:53:50;100715.41;;;11.98;100.00
44920;BME280;30655;53.094;6.072;2022-11-15T09:57:17;100619.06;;;11.33;100.00
44920;BME280;30655;53.094;6.072;2022-11-15T10:01:02;100602.34;;;11.21;100.00
44920;BME280;30655;53.094;6.072;2022-11-15T10:03:47;100684.94;;;11.73;100.00
44920;BME280;30655;53.094;6.072;2022-11-15T10:06:24;100588.31;;;11.19;100.00
44920;BME280;30655;53.094;6.072;2022-11-15T10:12:34;100566.91;;;11.22;100.00
44920;BME280;30655;53.094;6.072;2022-11-15T10:15:56;100747.91;;;12.42;100.00
44920;BME280;30655;53.094;6.072;2022-11-15T10:20:24;100659.94;;;11.86;100.00
44920;BME280;30655;53.094;6.072;2022-11-15T10:25:10;100590.00;;;11.54;100.00
44920;BME280;30655;53.094;6.072;2022-11-15T10:25:41;100601.09;;;11.57;100.00
44920;BME280;30655;53.094;6.072;2022-11-15T10:28:50;100737.00;;;12.52;100.00
44920;BME280;30655;53.094;6.072;2022-11-15T10:35:34;100633.25;;;11.74;100.00
44920;BME280;30655;53.094;6.072;2022-11-15T10:38:23;100728.66;;;12.44;100.00
44920;BME280;30655;53.094;6.072;2022-11-15T10:41:08;100681.66;;;12.25;100.00
44920;BME280;30655;53.094;6.072;2022-11-15T10:44:07;100722.34;;;12.54;100.00
44920;BME280;30655;53.094;6.072;2022-11-15T10:47:32;100721.22;;;12.60;100.00
44920;BME280;30655;53.094;6.072;2022-11-15T10:50:38;100541.25;;;11.59;100.00
44920;BME280;30655;53.094;6.072;2022-11-15T10:53:41;100718.69;;;12.68;100.00
44920;BME280;30655;53.094;6.072;2022-11-15T10:57:37;100543.22;;;11.48;100.00
44920;BME280;30655;53.094;6.072;2022-11-15T11:00:29;100529.09;;;11.56;100.00
44920;BME280;30655;53.094;6.072;2022-11-15T11:03:37;100556.78;;;11.87;100.00
44920;BME280;30655;53.094;6.072;2022-11-15T11:06:45;100643.53;;;12.45;100.00
44920;BME280;30655;53.094;6.072;2022-11-15T11:09:32;100586.22;;;12.28;100.00
44920;BME280;30655;53.094;6.072;2022-11-15T11:12:50;100537.53;;;11.89;100.00
44920;BME280;30655;53.094;6.072;2022-11-15T11:15:40;100612.28;;;12.52;100.00
44920;BME280;30655;53.094;6.072;2022-11-15T11:18:41;100516.44;;;11.86;100.00
44920;BME280;30655;53.094;6.072;2022-11-15T11:21:53;100653.47;;;12.83;100.00
44920;BME280;30655;53.094;6.072;2022-11-15T11:25:22;100528.69;;;12.07;100.00
44920;BME280;30655;53.094;6.072;2022-11-15T11:32:20;100680.06;;;13.05;99.71
44920;BME280;30655;53.094;6.072;2022-11-15T11:35:42;100612.19;;;12.63;99.09
44920;BME280;30655;53.094;6.072;2022-11-15T11:39:14;100554.72;;;12.08;96.96
44920;BME280;30655;53.094;6.072;2022-11-15T11:42:39;100683.47;;;12.92;97.53
44920;BME280;30655;53.094;6.072;2022-11-15T11:47:30;100625.78;;;12.58;97.77
44920;BME280;30655;53.094;6.072;2022-11-15T11:49:12;100613.31;;;12.57;96.83
44920;BME280;30655;53.094;6.072;2022-11-15T11:55:41;100494.94;;;11.99;97.05
44920;BME280;30655;53.094;6.072;2022-11-15T11:58:34;100632.47;;;12.94;95.38
44920;BME280;30655;53.094;6.072;2022-11-15T12:01:26;100628.84;;;13.04;95.06
44920;BME280;30655;53.094;6.072;2022-11-15T12:04:49;100573.75;;;13.03;95.78
44920;BME280;30655;53.094;6.072;2022-11-15T12:07:53;100594.22;;;13.75;95.60
44920;BME280;30655;53.094;6.072;2022-11-15T12:31:10;100548.44;;;15.16;86.73
44920;BME280;30655;53.094;6.072;2022-11-15T12:36:59;100633.47;;;14.99;85.95
44920;BME280;30655;53.094;6.072;2022-11-15T12:40:23;100629.84;;;15.03;86.87
44920;BME280;30655;53.094;6.072;2022-11-15T12:46:20;100472.44;;;13.96;84.36
44920;BME280;30655;53.094;6.072;2022-11-15T12:49:09;100497.88;;;14.19;82.76
44920;BME280;30655;53.094;6.072;2022-11-15T12:52:07;100562.88;;;14.48;82.12
44920;BME280;30655;53.094;6.072;2022-11-15T12:54:54;100610.97;;;14.80;81.72
44920;BME280;30655;53.094;6.072;2022-11-15T12:57:53;100449.59;;;13.51;80.34
44920;BME280;30655;53.094;6.072;2022-11-15T13:00:49;100615.66;;;14.47;81.35
44920;BME280;30655;53.094;6.072;2022-11-15T13:10:38;100612.25;;;14.22;76.70
44920;BME280;30655;53.094;6.072;2022-11-15T13:13:10;100598.91;;;14.40;80.97
44920;BME280;30655;53.094;6.072;2022-11-15T13:15:55;100598.41;;;14.38;79.71
44920;BME280;30655;53.094;6.072;2022-11-15T13:21:56;100579.09;;;14.20;80.86
44920;BME280;30655;53.094;6.072;2022-11-15T13:31:51;100523.50;;;13.99;78.52
44920;BME280;30655;53.094;6.072;2022-11-15T13:34:30;100570.19;;;14.34;79.86
44920;BME280;30655;53.094;6.072;2022-11-15T13:44:19;100508.19;;;13.71;80.01
44920;BME280;30655;53.094;6.072;2022-11-15T13:50:42;100465.19;;;13.27;80.41
44920;BME280;30655;53.094;6.072;2022-11-15T14:17:39;100455.16;;;12.66;81.05
44920;BME280;30655;53.094;6.072;2022-11-15T14:21:19;100334.28;;;11.80;80.92
44920;BME280;30655;53.094;6.072;2022-11-15T14:24:21;100363.94;;;11.90;81.53
44920;BME280;30655;53.094;6.072;2022-11-15T14:31:01;100413.66;;;11.99;81.28
44920;BME280;30655;53.094;6.072;2022-11-15T14:33:55;100523.06;;;12.80;81.46
44920;BME280;30655;53.094;6.072;2022-11-15T14:37:02;100512.78;;;12.77;81.97
44920;BME280;30655;53.094;6.072;2022-11-15T14:40:03;100366.41;;;11.87;81.82
44920;BME280;30655;53.094;6.072;2022-11-15T14:43:02;100343.34;;;11.65;81.97
44920;BME280;30655;53.094;6.072;2022-11-15T14:49:05;100495.72;;;12.52;81.67
44920;BME280;30655;53.094;6.072;2022-11-15T14:51:55;100469.38;;;12.34;81.17
44920;BME280;30655;53.094;6.072;2022-11-15T14:54:54;100306.41;;;11.22;81.55
44920;BME280;30655;53.094;6.072;2022-11-15T14:58:13;100484.00;;;12.33;80.96
44920;BME280;30655;53.094;6.072;2022-11-15T15:04:48;100378.09;;;11.53;81.21
44920;BME280;30655;53.094;6.072;2022-11-15T15:07:54;100449.88;;;12.08;81.20
44920;BME280;30655;53.094;6.072;2022-11-15T15:10:46;100465.03;;;12.10;81.27
44920;BME280;30655;53.094;6.072;2022-11-15T15:13:58;100452.28;;;12.10;81.11
44920;BME280;30655;53.094;6.072;2022-11-15T15:17:26;100458.28;;;12.07;81.94
44920;BME280;30655;53.094;6.072;2022-11-15T15:47:17;100347.09;;;11.07;81.80
44920;BME280;30655;53.094;6.072;2022-11-15T15:50:14;100381.59;;;11.25;81.79
44920;BME280;30655;53.094;6.072;2022-11-15T15:53:09;100368.19;;;11.10;81.88
44920;BME280;30655;53.094;6.072;2022-11-15T15:56:05;100372.13;;;11.22;81.39
44920;BME280;30655;53.094;6.072;2022-11-15T15:59:27;100231.81;;;10.19;81.63
44920;BME280;30655;53.094;6.072;2022-11-15T16:05:44;100361.97;;;11.09;82.29
44920;BME280;30655;53.094;6.072;2022-11-15T16:18:20;100396.16;;;11.29;83.07
44920;BME280;30655;53.094;6.072;2022-11-15T16:24:51;100199.16;;;10.11;83.22
44920;BME280;30655;53.094;6.072;2022-11-15T16:34:43;100296.91;;;10.96;83.74
44920;BME280;30655;53.094;6.072;2022-11-15T16:38:22;100358.00;;;11.31;84.60
44920;BME280;30655;53.094;6.072;2022-11-15T16:41:05;100174.56;;;10.12;84.59
44920;BME280;30655;53.094;6.072;2022-11-15T16:44:07;100355.22;;;11.36;84.84
44920;BME280;30655;53.094;6.072;2022-11-15T16:47:19;100360.09;;;11.39;84.44
44920;BME280;30655;53.094;6.072;2022-11-15T16:50:20;100170.50;;;10.20;84.90
44920;BME280;30655;53.094;6.072;2022-11-15T17:00:18;100264.97;;;10.98;84.70
44920;BME280;30655;53.094;6.072;2022-11-15T17:03:08;100152.59;;;10.29;84.47
44920;BME280;30655;53.094;6.072;2022-11-15T17:05:39;100335.38;;;11.50;84.38
44920;BME280;30655;53.094;6.072;2022-11-15T17:08:11;100271.06;;;11.13;84.04
44920;BME280;30655;53.094;6.072;2022-11-15T17:11:05;100166.66;;;10.31;83.21
44920;BME280;30655;53.094;6.072;2022-11-15T17:13:56;100199.31;;;10.63;83.83
44920;BME280;30655;53.094;6.072;2022-11-15T17:16:41;100189.38;;;10.59;83.22
44920;BME280;30655;53.094;6.072;2022-11-15T17:19:37;100331.22;;;11.58;83.40
44920;BME280;30655;53.094;6.072;2022-11-15T17:22:20;100336.03;;;11.61;83.29
44920;BME280;30655;53.094;6.072;2022-11-15T17:32:02;100176.47;;;10.51;81.54
44920;BME280;30655;53.094;6.072;2022-11-15T17:35:01;100175.66;;;10.50;81.00
44920;BME280;30655;53.094;6.072;2022-11-15T17:41:20;100248.38;;;11.09;80.21
44920;BME280;30655;53.094;6.072;2022-11-15T17:58:25;100313.63;;;11.60;77.75
44920;BME280;30655;53.094;6.072;2022-11-15T18:09:08;100112.47;;;10.46;76.49
44920;BME280;30655;53.094;6.072;2022-11-15T18:18:56;100230.59;;;11.27;76.22
44920;BME280;30655;53.094;6.072;2022-11-15T18:21:52;100299.28;;;11.84;77.45
44920;BME280;30655;53.094;6.072;2022-11-15T18:27:53;100294.38;;;11.86;76.75
44920;BME280;30655;53.094;6.072;2022-11-15T18:30:50;100216.41;;;11.40;76.08
44920;BME280;30655;53.094;6.072;2022-11-15T18:34:13;100284.88;;;11.88;76.17
44920;BME280;30655;53.094;6.072;2022-11-15T18:37:01;100156.44;;;11.09;76.47
44920;BME280;30655;53.094;6.072;2022-11-15T18:39:41;100134.03;;;11.04;76.77
44920;BME280;30655;53.094;6.072;2022-11-15T18:42:37;100282.63;;;11.95;76.48
44920;BME280;30655;53.094;6.072;2022-11-15T18:45:19;100094.19;;;10.91;76.20
44920;BME280;30655;53.094;6.072;2022-11-15T18:48:19;100093.94;;;10.87;76.02
44920;BME280;30655;53.094;6.072;2022-11-15T18:51:13;100259.84;;;11.96;76.28
44920;BME280;30655;53.094;6.072;2022-11-15T18:54:20;100241.97;;;11.77;75.53
44920;BME280;30655;53.094;6.072;2022-11-15T18:57:14;100194.66;;;11.50;76.14
44920;BME280;30655;53.094;6.072;2022-11-15T18:59:53;100059.78;;;10.72;76.55
44920;BME280;30655;53.094;6.072;2022-11-15T19:02:47;100112.19;;;11.00;76.39
44920;BME280;30655;53.094;6.072;2022-11-15T19:05:37;100238.50;;;11.95;76.51
44920;BME280;30655;53.094;6.072;2022-11-15T19:08:26;100255.19;;;12.02;75.38
44920;BME280;30655;53.094;6.072;2022-11-15T19:11:39;100258.09;;;12.05;76.25
44920;BME280;30655;53.094;6.072;2022-11-15T19:15:28;100147.16;;;11.39;75.72
44920;BME280;30655;53.094;6.072;2022-11-15T19:21:54;100201.28;;;11.82;76.48
44920;BME280;30655;53.094;6.072;2022-11-15T19:31:49;100238.78;;;12.12;76.47
44920;BME280;30655;53.094;6.072;2022-11-15T19:34:49;100242.09;;;12.09;76.27
44920;BME280;30655;53.094;6.072;2022-11-15T19:40:19;100245.00;;;12.13;76.42
44920;BME280;30655;53.094;6.072;2022-11-15T19:41:05;100138.66;;;11.46;76.92
44920;BME280;30655;53.094;6.072;2022-11-15T19:45:05;100075.28;;;11.09;77.23
44920;BME280;30655;53.094;6.072;2022-11-15T19:50:48;100075.03;;;11.06;78.24
44920;BME280;30655;53.094;6.072;2022-11-15T19:53:31;100235.59;;;12.10;78.98
44920;BME280;30655;53.094;6.072;2022-11-15T19:56:21;100234.78;;;12.10;79.84
44920;BME280;30655;53.094;6.072;2022-11-15T19:59:16;100054.47;;;10.86;80.14
44920;BME280;30655;53.094;6.072;2022-11-15T20:02:14;100157.84;;;11.49;80.60
44920;BME280;30655;53.094;6.072;2022-11-15T20:08:02;100233.66;;;11.92;81.80
44920;BME280;30655;53.094;6.072;2022-11-15T20:10:57;100180.78;;;11.52;82.68
44920;BME280;30655;53.094;6.072;2022-11-15T20:17:06;100052.31;;;10.64;83.11
44920;BME280;30655;53.094;6.072;2022-11-15T20:20:14;100043.44;;;10.59;84.16
44920;BME280;30655;53.094;6.072;2022-11-15T20:22:55;100111.38;;;11.00;84.71
44920;BME280;30655;53.094;6.072;2022-11-15T20:25:43;100221.00;;;11.63;84.18
44920;BME280;30655;53.094;6.072;2022-11-15T20:34:36;100029.06;;;10.40;84.41
44920;BME280;30655;53.094;6.072;2022-11-15T20:41:16;100032.38;;;10.31;85.88
44920;BME280;30655;53.094;6.072;2022-11-15T20:44:37;100210.94;;;11.45;85.81
44920;BME280;30655;53.094;6.072;2022-11-15T20:47:25;100160.16;;;11.13;86.30
44920;BME280;30655;53.094;6.072;2022-11-15T20:51:21;100054.72;;;10.37;85.92
44920;BME280;30655;53.094;6.072;2022-11-15T20:54:25;100086.31;;;10.70;86.84
44920;BME280;30655;53.094;6.072;2022-11-15T20:57:46;100020.31;;;10.24;86.55
44920;BME280;30655;53.094;6.072;2022-11-15T21:00:21;100207.75;;;11.38;88.71
44920;BME280;30655;53.094;6.072;2022-11-15T21:03:24;100151.25;;;11.13;87.41
44920;BME280;30655;53.094;6.072;2022-11-15T21:06:18;100023.53;;;10.26;86.86
44920;BME280;30655;53.094;6.072;2022-11-15T21:09:08;100017.56;;;10.29;88.00
44920;BME280;30655;53.094;6.072;2022-11-15T21:12:11;100013.81;;;10.25;87.62
44920;BME280;30655;53.094;6.072;2022-11-15T21:15:50;99997.72;;;10.10;88.12
44920;BME280;30655;53.094;6.072;2022-11-15T21:18:56;100098.03;;;10.85;87.87
44920;BME280;30655;53.094;6.072;2022-11-15T21:21:39;100147.34;;;11.24;88.02
44920;BME280;30655;53.094;6.072;2022-11-15T21:24:10;100181.28;;;11.35;89.59
44920;BME280;30655;53.094;6.072;2022-11-15T21:27:04;100144.41;;;11.20;87.92
44920;BME280;30655;53.094;6.072;2022-11-15T21:30:06;100086.13;;;10.86;88.65
44920;BME280;30655;53.094;6.072;2022-11-15T21:32:48;100173.13;;;11.40;88.59
44920;BME280;30655;53.094;6.072;2022-11-15T21:42:14;100136.97;;;11.07;90.29
44920;BME280;30655;53.094;6.072;2022-11-15T21:45:29;100159.13;;;11.33;89.68
44920;BME280;30655;53.094;6.072;2022-11-15T21:48:35;100170.22;;;11.32;89.73
44920;BME280;30655;53.094;6.072;2022-11-15T21:54:36;100138.75;;;11.17;90.02
44920;BME280;30655;53.094;6.072;2022-11-15T21:57:19;100113.50;;;11.03;90.27
44920;BME280;30655;53.094;6.072;2022-11-15T22:00:16;99988.47;;;10.21;90.89
44920;BME280;30655;53.094;6.072;2022-11-15T22:23:51;99942.13;;;10.09;91.73
44920;BME280;30655;53.094;6.072;2022-11-15T22:30:06;100129.47;;;11.23;92.44
44920;BME280;30655;53.094;6.072;2022-11-15T22:39:31;100117.03;;;11.22;92.89
44920;BME280;30655;53.094;6.072;2022-11-15T22:42:53;99950.28;;;10.04;93.28
44920;BME280;30655;53.094;6.072;2022-11-15T22:46:06;99939.81;;;9.97;93.42
44920;BME280;30655;53.094;6.072;2022-11-15T22:50:34;100062.88;;;10.85;94.56
44920;BME280;30655;53.094;6.072;2022-11-15T22:56:04;100079.09;;;10.85;95.05
44920;BME280;30655;53.094;6.072;2022-11-15T22:59:03;100017.41;;;10.44;95.62
44920;BME280;30655;53.094;6.072;2022-11-15T23:06:09;100079.69;;;11.24;95.14
44920;BME280;30655;53.094;6.072;2022-11-15T23:15:58;100096.97;;;11.28;95.67
44920;BME280;30655;53.094;6.072;2022-11-15T23:22:23;100078.91;;;11.23;95.88
44920;BME280;30655;53.094;6.072;2022-11-15T23:28:58;100020.66;;;10.89;96.80
44920;BME280;30655;53.094;6.072;2022-11-15T23:35:18;99903.34;;;10.00;97.71
44920;BME280;30655;53.094;6.072;2022-11-15T23:38:14;99994.75;;;10.64;98.23
44920;BME280;30655;53.094;6.072;2022-11-15T23:41:07;99888.81;;;9.96;98.15
44920;BME280;30655;53.094;6.072;2022-11-15T23:50:36;99904.53;;;10.12;98.99
44920;BME280;30655;53.094;6.072;2022-11-15T23:56:38;100015.25;;;10.89;99.14
44920;BME280;30655;53.094;6.072;2022-11-15T23:59:41;99859.69;;;9.92;98.35
